Avioradar koristi kolačiće da bi Vam omogućio jednostavnije i ugodnije korištenje stranice. 

AVIORADAR - Hrvatski zrakoplovni portal

METAR & TAF

[Source: ADDS]
METAR
LDZA 080000Z 25004KT 7000 NSC M03/M04 Q1013 NOSIG =
LDZA 072325Z 0800/0900 22005KT CAVOK TX03/0813Z TNM07/0804Z PROB30 0805/0809 0200 FZFG VV001 PROB30 TEMPO 0818/0822 -FZRA BECMG 0822/0900 3000 RASN BKN005 OVC020 LDSP 080000Z AUTO 35005KT 310V030 CAVOK 03/M05 Q1011 =
LDSP 072325Z 0800/0900 32006KT CAVOK TX12/0820Z TN02/0804Z PROB40 TEMPO 0800/0804 03011KT BECMG 0812/0814 11015KT TEMPO 0818/0900 13018G30KT BECMG 0821/0823 RA TEMPO 0823/0900 24015G25KT 3000 +TSRA SCT010 SCT020CB OVC025 LDDU 080000Z 02025G39KT 320V080 CAVOK 05/M06 Q1008 =
LDDU 072325Z 0800/0900 03025G40KT CAVOK TX11/0812Z TN03/0803Z BECMG 0803/0805 02012KT BECMG 0807/0809 VRB02KT BECMG 0811/0813 12014KT TEMPO 0820/0900 12018G30KT RA BKN010 LDPL 080000Z 06004KT CAVOK 02/M04 Q1012 =
LDPL 072325Z 0800/0900 03006KT CAVOK TX10/0813Z TNM01/0803Z BECMG 0803/0805 07010KT BECMG 0811/0813 13015G25KT PROB30 TEMPO 0814/0818 13025G35KT BECMG 0814/0816 RA TEMPO 0818/0822 3000 SHRA BKN010 SCT020TCU OVC025 BECMG 0821/0823 24008KT NSW LDZD 080000Z 12003KT 100V160 CAVOK M01/M04 Q1012 =
LDZD 072325Z 0800/0900 14003KT CAVOK TX11/0820Z TNM04/0804Z BECMG 0810/0812 13012KT BECMG 0814/0816 13018KT PROB40 TEMPO 0816/0900 13020G30KT BECMG 0819/0821 RA TEMPO 0821/0900 24015G25KT 3000 +TSRA BKN012 SCT020CB OVC025 LDRI 080000Z 00000KT CAVOK 00/M06 Q1012 =
LDRI 072325Z 0800/0900 06008KT CAVOK TX09/0813Z TNM01/0803Z BECMG 0812/0814 14009KT PROB40 TEMPO 0816/0821 14018G28KT BECMG 0819/0821 RA BKN010 TEMPO 0821/0900 3000 SHRA BKN010 SCT020TCU OVC025 LDOS 080000Z 28006KT CAVOK M01/M02 Q1012 =
LDOS 072325Z 0800/0900 30010KT CAVOK TX03/0813Z TNM04/0804Z BECMG 0801/0803 27005KT PROB40 0803/0810 1500 BR BKN003 PROB30 TEMPO 0803/0809 0300 FZFG VV002 BECMG 0812/0814 11010KT
TAF
LDZA 072325Z 0800/0900 22005KT CAVOK TX03/0813Z TNM07/0804Z PROB30 0805/0809 0200 FZFG VV001 PROB30 TEMPO 0818/0822 -FZRA BECMG 0822/0900 3000 RASN BKN005 OVC020 =
LDSP 072325Z 0800/0900 32006KT CAVOK TX12/0820Z TN02/0804Z PROB40 TEMPO 0800/0804 03011KT BECMG 0812/0814 11015KT TEMPO 0818/0900 13018G30KT BECMG 0821/0823 RA TEMPO 0823/0900 24015G25KT 3000 +TSRA SCT010 SCT020CB OVC025 =
LDDU 072325Z 0800/0900 03025G40KT CAVOK TX11/0812Z TN03/0803Z BECMG 0803/0805 02012KT BECMG 0807/0809 VRB02KT BECMG 0811/0813 12014KT TEMPO 0820/0900 12018G30KT RA BKN010 =
LDPL 072325Z 0800/0900 03006KT CAVOK TX10/0813Z TNM01/0803Z BECMG 0803/0805 07010KT BECMG 0811/0813 13015G25KT PROB30 TEMPO 0814/0818 13025G35KT BECMG 0814/0816 RA TEMPO 0818/0822 3000 SHRA BKN010 SCT020TCU OVC025 BECMG 0821/0823 24008KT NSW =
LDZD 072325Z 0800/0900 14003KT CAVOK TX11/0820Z TNM04/0804Z BECMG 0810/0812 13012KT BECMG 0814/0816 13018KT PROB40 TEMPO 0816/0900 13020G30KT BECMG 0819/0821 RA TEMPO 0821/0900 24015G25KT 3000 +TSRA BKN012 SCT020CB OVC025 =
LDRI 072325Z 0800/0900 06008KT CAVOK TX09/0813Z TNM01/0803Z BECMG 0812/0814 14009KT PROB40 TEMPO 0816/0821 14018G28KT BECMG 0819/0821 RA BKN010 TEMPO 0821/0900 3000 SHRA BKN010 SCT020TCU OVC025 =
LDOS 072325Z 0800/0900 30010KT CAVOK TX03/0813Z TNM04/0804Z BECMG 0801/0803 27005KT PROB40 0803/0810 1500 BR BKN003 PROB30 TEMPO 0803/0809 0300 FZFG VV002 BECMG 0812/0814 11010KT =
SR / SS: 06:24 / 15:11 UTC (Zagreb 2021-12-08)